createdAt,value
2023-03-29T00:09:27.449Z,4.2
2023-03-29T00:19:29.455Z,4.2
2023-03-29T00:29:31.279Z,4.2
2023-03-29T00:39:33.502Z,4.2
2023-03-29T00:49:35.228Z,4.1
2023-03-29T00:59:37.892Z,4.1
2023-03-29T01:09:40.549Z,4.1
2023-03-29T01:19:43.154Z,4.1
2023-03-29T01:29:45.548Z,4.2
2023-03-29T01:39:47.340Z,4.2
2023-03-29T01:59:52.325Z,4.3
2023-03-29T02:09:54.085Z,4.3
2023-03-29T02:19:55.935Z,4.4
2023-03-29T02:29:58.455Z,4.5
2023-03-29T02:40:00.172Z,4.6
2023-03-29T02:50:02.350Z,4.8
2023-03-29T03:10:06.573Z,5.2
2023-03-29T03:20:08.491Z,5.4
2023-03-29T03:30:11.079Z,5.4
2023-03-29T03:40:13.231Z,5.5
2023-03-29T03:50:15.267Z,5.5
2023-03-29T04:00:17.489Z,5.6
2023-03-29T04:10:19.487Z,5.7
2023-03-29T04:20:22.128Z,5.8
2023-03-29T04:30:24.223Z,5.9
2023-03-29T04:40:26.885Z,5.7
2023-03-29T04:50:29.395Z,5.6
2023-03-29T05:00:31.473Z,5.6
2023-03-29T05:10:33.682Z,5.6
2023-03-29T05:20:35.955Z,5.6
2023-03-29T05:30:38.420Z,5.7
2023-03-29T05:40:40.818Z,5.8
2023-03-29T05:50:45.081Z,5.9
2023-03-29T06:00:45.651Z,6
2023-03-29T06:10:47.862Z,6
2023-03-29T06:20:49.880Z,6.1
2023-03-29T06:30:52.156Z,6.1
2023-03-29T06:40:53.853Z,6.3
2023-03-29T07:11:00.516Z,6.9
2023-03-29T07:21:03.002Z,7.2
2023-03-29T07:41:06.836Z,7.7
2023-03-29T08:12:40.669Z,8.4
2023-03-29T08:21:24.135Z,8.6
2023-03-29T08:31:26.252Z,8.6
2023-03-29T08:51:30.091Z,9
2023-03-29T09:01:32.390Z,9
2023-03-29T09:11:34.358Z,9.2
2023-03-29T09:21:36.709Z,9.5
2023-03-29T09:31:38.813Z,9.5
2023-03-29T09:51:43.407Z,8.9
2023-03-29T10:11:48.164Z,9.1
2023-03-29T10:21:50.173Z,9.1
2023-03-29T10:31:52.473Z,9.4
2023-03-29T10:41:54.306Z,9.8
2023-03-29T10:51:56.857Z,10
2023-03-29T11:01:59.103Z,10.5
2023-03-29T11:22:03.125Z,11.3
2023-03-29T11:42:07.383Z,11.6
2023-03-29T11:52:09.511Z,11.9
2023-03-29T12:02:12.063Z,12.5
2023-03-29T12:12:14.697Z,12.8
2023-03-29T12:22:17.348Z,13.2
2023-03-29T12:32:19.673Z,13.6
2023-03-29T12:42:21.896Z,13.6
2023-03-29T12:52:24.092Z,13.5
2023-03-29T13:22:31.752Z,13.7
2023-03-29T13:42:36.341Z,14.1
2023-03-29T13:52:38.102Z,14.1
2023-03-29T14:02:40.805Z,14.4
2023-03-29T14:12:42.659Z,14.2
2023-03-29T14:22:44.913Z,14.3
2023-03-29T14:32:47.579Z,14.6
2023-03-29T14:42:49.391Z,14.3
2023-03-29T15:02:53.462Z,14.7
2023-03-29T15:12:55.857Z,14.6
2023-03-29T15:22:57.910Z,14.7
2023-03-29T15:33:00.415Z,14.6
2023-03-29T16:13:08.941Z,14.5
2023-03-29T16:23:10.929Z,14.5
2023-03-29T16:33:13.448Z,14.4
2023-03-29T16:43:15.659Z,14.4
2023-03-29T16:53:17.974Z,14.5
2023-03-29T17:03:19.947Z,14.4
2023-03-29T17:13:22.509Z,14.3
2023-03-29T17:23:24.353Z,14.4
2023-03-29T17:33:26.736Z,14.4
2023-03-29T17:43:28.656Z,14.4
2023-03-29T17:53:31.246Z,14.4
2023-03-29T18:03:33.860Z,14.5
2023-03-29T18:13:36.313Z,14.5
2023-03-29T18:23:38.651Z,14.5
2023-03-29T18:33:40.461Z,14.4
2023-03-29T18:43:42.840Z,14.5
2023-03-29T18:53:44.740Z,14.4
2023-03-29T19:03:47.026Z,14.3
2023-03-29T19:13:49.092Z,14.3
2023-03-29T19:23:51.262Z,14.3
2023-03-29T19:33:53.557Z,14.4
2023-03-29T19:43:55.859Z,14.4
2023-03-29T19:53:57.966Z,14.2
2023-03-29T20:04:00.189Z,14.1
2023-03-29T20:14:02.539Z,14
2023-03-29T20:24:05.124Z,13.8
2023-03-29T20:44:09.590Z,13.7
2023-03-29T21:04:14.552Z,13.6
2023-03-29T21:14:16.335Z,13.6
2023-03-29T21:24:19.002Z,13.5
2023-03-29T21:34:20.900Z,13.5
2023-03-29T21:54:25.649Z,13.5
2023-03-29T22:04:36.402Z,13.4
2023-03-29T22:14:30.494Z,13.3
2023-03-29T22:24:32.646Z,13.2
2023-03-29T22:34:34.753Z,13.2
2023-03-29T22:44:36.959Z,13.1
2023-03-29T22:54:39.520Z,13.1
2023-03-29T23:14:43.454Z,13.2
2023-03-29T23:34:47.898Z,13.1
2023-03-29T23:44:50.301Z,12.9
2023-03-29T23:54:52.545Z,12.5
